Time;durP1;ratioP1;P1;durP2;ratioP2;P2;SDS_P1;SDS_P2;PMS_P1;PMS_P2;Temp;Humidity;BMP_temperature;BMP_pressure;BME280_temperature;BME280_humidity;BME280_pressure;Samples;Min_cycle;Max_cycle;Signal;HPM_P1;HPM_P2
2021/07/23 00:00:50;;;;;;;16.82;9.53;;;;;;;16.23;70.27;101491.77;1836468;77;21066;-83
2021/07/23 00:03:16;;;;;;;13.48;9.70;;;;;;;16.16;70.34;101493.88;1836427;77;20988;-83
2021/07/23 00:05:43;;;;;;;13.58;9.58;;;;;;;16.11;70.45;101497.37;1836496;78;22406;-83
2021/07/23 00:08:10;;;;;;;12.68;10.25;;;;;;;16.08;70.49;101493.33;1836497;78;21046;-82
2021/07/23 00:10:37;;;;;;;12.33;9.25;;;;;;;16.03;70.59;101491.06;1836269;78;21113;-82
2021/07/23 00:13:04;;;;;;;14.05;9.38;;;;;;;16.01;70.67;101487.50;1823604;77;21018;-83
2021/07/23 00:15:30;;;;;;;12.15;9.40;;;;;;;15.98;70.70;101487.45;1820157;77;21001;-82
2021/07/23 00:17:57;;;;;;;12.18;9.25;;;;;;;15.96;70.75;101487.86;1818157;77;21887;-83
2021/07/23 00:20:25;;;;;;;13.72;9.93;;;;;;;15.92;70.87;101490.90;1818409;78;21045;-82
2021/07/23 00:22:51;;;;;;;12.65;9.33;;;;;;;15.89;70.94;101490.84;1816049;77;21068;-83
2021/07/23 00:25:18;;;;;;;13.88;9.15;;;;;;;15.88;70.99;101493.06;1844427;77;21052;-82
2021/07/23 00:27:45;;;;;;;13.30;8.65;;;;;;;15.84;71.03;101485.00;1844621;77;21009;-82
2021/07/23 00:30:13;;;;;;;10.65;8.18;;;;;;;15.81;71.10;101489.84;1817889;77;21706;-83
2021/07/23 00:32:41;;;;;;;15.75;10.00;;;;;;;15.78;71.18;101484.48;1816131;78;20991;-83
2021/07/23 00:35:09;;;;;;;10.43;9.15;;;;;;;15.76;71.24;101490.64;1799344;79;21271;-82
2021/07/23 00:37:36;;;;;;;11.05;9.13;;;;;;;15.71;71.22;101483.48;1790480;79;21533;-83
2021/07/23 00:40:04;;;;;;;12.98;8.75;;;;;;;15.68;71.30;101479.44;1804170;79;20979;-83
2021/07/23 00:42:39;;;;;;;13.62;9.63;;;;;;;15.65;71.36;101484.69;1809068;79;21719;-83
2021/07/23 00:45:07;;;;;;;12.25;8.98;;;;;;;15.64;71.46;101491.31;1817016;77;21128;-83
2021/07/23 00:47:38;;;;;;;13.58;9.20;;;;;;;15.59;71.56;101483.27;1833021;77;21281;-83
2021/07/23 00:50:06;;;;;;;14.05;9.70;;;;;;;15.57;71.63;101486.77;1836424;77;21446;-83
2021/07/23 00:52:33;;;;;;;15.00;10.75;;;;;;;15.52;71.90;101482.70;1836487;77;21062;-83
2021/07/23 00:55:01;;;;;;;15.60;10.03;;;;;;;15.46;71.99;101486.14;1836361;78;21727;-83
2021/07/23 00:57:27;;;;;;;13.15;10.40;;;;;;;15.40;72.06;101478.54;1836347;78;21031;-83
2021/07/23 00:59:54;;;;;;;15.90;10.43;;;;;;;15.38;72.22;101477.63;1836372;77;21030;-82
2021/07/23 01:02:21;;;;;;;16.27;10.32;;;;;;;15.34;72.22;101478.00;1841961;77;21481;-82
2021/07/23 01:04:48;;;;;;;15.28;10.88;;;;;;;15.31;72.31;101480.15;1809051;77;20994;-83
2021/07/23 01:07:15;;;;;;;15.03;10.78;;;;;;;15.28;72.32;101480.11;1811271;78;21802;-82
2021/07/23 01:09:42;;;;;;;14.55;10.03;;;;;;;15.28;72.40;101485.42;1817694;77;21058;-82
2021/07/23 01:12:10;;;;;;;10.80;9.20;;;;;;;15.28;72.54;101480.56;1813019;78;21038;-82
2021/07/23 01:14:38;;;;;;;11.22;9.85;;;;;;;15.24;72.55;101482.26;1815918;77;20981;-83
2021/07/23 01:17:04;;;;;;;15.90;10.38;;;;;;;15.23;72.62;101478.25;1835435;78;21571;-82
2021/07/23 01:19:42;;;;;;;12.53;10.30;;;;;;;15.22;72.71;101481.34;1817022;78;22415;-83
2021/07/23 01:22:09;;;;;;;12.73;10.30;;;;;;;15.19;72.71;101477.73;1795070;79;20984;-87
2021/07/23 01:24:36;;;;;;;11.45;10.05;;;;;;;15.17;72.78;101475.05;1803409;78;21051;-87
2021/07/23 01:27:03;;;;;;;20.72;11.05;;;;;;;15.15;72.89;101485.63;1810806;79;21679;-87
2021/07/23 01:29:30;;;;;;;15.43;10.55;;;;;;;15.11;72.94;101487.77;1810925;77;20979;-87
2021/07/23 01:31:58;;;;;;;14.58;10.25;;;;;;;15.09;72.99;101483.28;1809233;79;22444;-87
2021/07/23 01:34:24;;;;;;;11.25;9.50;;;;;;;15.06;73.08;101482.81;1805165;78;21058;-87
2021/07/23 01:36:51;;;;;;;14.03;9.68;;;;;;;15.06;73.13;101480.59;1803700;79;21476;-87
2021/07/23 01:39:18;;;;;;;13.28;10.80;;;;;;;15.03;73.19;101480.09;1818696;77;21076;-87
2021/07/23 01:41:44;;;;;;;12.07;9.88;;;;;;;15.01;73.25;101480.94;1818696;78;21040;-86
2021/07/23 01:44:11;;;;;;;13.78;10.20;;;;;;;14.97;73.31;101476.89;1822358;77;22010;-87
2021/07/23 01:46:38;;;;;;;11.63;9.70;;;;;;;14.95;73.41;101477.73;1807129;79;20999;-87
2021/07/23 01:49:05;;;;;;;13.53;9.70;;;;;;;14.93;73.46;101479.03;1809145;78;32897;-88
2021/07/23 01:51:32;;;;;;;12.53;9.93;;;;;;;14.91;73.53;101481.20;1809177;79;21021;-86
2021/07/23 01:53:59;;;;;;;12.03;9.95;;;;;;;14.89;73.63;101474.98;1805161;79;21475;-87
2021/07/23 01:56:26;;;;;;;16.60;10.20;;;;;;;14.87;73.70;101475.39;1815349;79;22395;-87
2021/07/23 01:58:55;;;;;;;13.93;9.83;;;;;;;14.85;73.70;101471.82;1827598;77;20983;-87
2021/07/23 02:01:22;;;;;;;13.35;9.38;;;;;;;14.83;73.78;101470.46;1834136;77;21035;-87
2021/07/23 02:03:49;;;;;;;12.88;10.30;;;;;;;14.81;73.87;101473.52;1804653;79;20951;-86
2021/07/23 02:06:15;;;;;;;14.13;10.32;;;;;;;14.81;73.94;101473.92;1807694;77;21518;-87
2021/07/23 02:08:42;;;;;;;11.00;9.30;;;;;;;14.78;73.98;101474.33;1812958;79;21756;-87
2021/07/23 02:11:09;;;;;;;15.03;10.18;;;;;;;14.77;74.06;101472.97;1803263;79;21033;-87
2021/07/23 02:13:36;;;;;;;12.53;9.88;;;;;;;14.76;74.04;101477.83;1823649;77;21621;-86
2021/07/23 02:16:08;;;;;;;13.58;9.83;;;;;;;14.72;74.05;101472.89;1837991;77;21249;-87
2021/07/23 02:18:34;;;;;;;14.10;10.08;;;;;;;14.71;74.13;101474.19;1841411;77;21034;-87
2021/07/23 02:21:07;;;;;;;12.55;9.28;;;;;;;14.69;74.18;101478.56;1841371;78;21793;-87
2021/07/23 02:23:34;;;;;;;12.40;9.68;;;;;;;14.68;74.25;101477.68;1816114;78;21011;-88
2021/07/23 02:26:00;;;;;;;15.05;10.35;;;;;;;14.66;74.27;101474.11;1809339;79;21011;-87
2021/07/23 02:28:27;;;;;;;12.75;9.38;;;;;;;14.65;74.35;101476.28;1807365;77;21118;-86
2021/07/23 02:30:54;;;;;;;14.43;10.43;;;;;;;14.63;74.40;101476.69;1819514;77;21058;-87
2021/07/23 02:33:21;;;;;;;13.93;9.43;;;;;;;14.61;74.46;101466.49;1815308;77;21711;-88
2021/07/23 02:35:48;;;;;;;13.53;9.78;;;;;;;14.62;74.52;101468.70;1816346;78;21107;-87
2021/07/23 02:38:14;;;;;;;14.30;9.90;;;;;;;14.58;74.53;101468.66;1815601;79;21053;-87
2021/07/23 02:40:41;;;;;;;12.88;9.40;;;;;;;14.58;74.58;101465.09;1815629;77;21186;-87
2021/07/23 02:43:08;;;;;;;15.50;9.78;;;;;;;14.56;74.66;101473.00;1815774;77;21094;-88
2021/07/23 02:45:34;;;;;;;12.25;9.45;;;;;;;14.56;74.66;101474.73;1823631;77;21436;-86
2021/07/23 02:48:01;;;;;;;13.32;9.35;;;;;;;14.57;74.74;101465.98;1835784;77;21062;-87
2021/07/23 02:50:28;;;;;;;11.05;9.83;;;;;;;14.57;74.78;101468.63;1849837;77;21404;-87
2021/07/23 02:52:58;;;;;;;11.70;9.50;;;;;;;14.58;74.87;101469.98;1850009;76;21078;-86
2021/07/23 02:55:24;;;;;;;11.43;9.45;;;;;;;14.59;74.92;101469.55;1849864;77;21489;-87
2021/07/23 02:57:51;;;;;;;13.80;9.13;;;;;;;14.62;74.98;101471.35;1850000;76;21704;-87
2021/07/23 03:00:18;;;;;;;13.72;9.70;;;;;;;14.65;75.05;101469.66;1831148;77;20967;-87
2021/07/23 03:02:45;;;;;;;12.25;9.63;;;;;;;14.68;75.04;101467.08;1819992;77;20999;-86
2021/07/23 03:05:12;;;;;;;13.80;10.15;;;;;;;14.72;75.01;101470.69;1836283;77;21063;-87
2021/07/23 03:07:38;;;;;;;11.20;9.10;;;;;;;14.74;75.02;101475.14;1836380;78;21125;-88
2021/07/23 03:10:06;;;;;;;13.13;9.33;;;;;;;14.79;75.06;101468.63;1836266;77;21740;-87
2021/07/23 03:12:34;;;;;;;13.50;8.85;;;;;;;14.85;75.04;101470.50;1836117;78;20987;-87
2021/07/23 03:15:01;;;;;;;10.28;8.75;;;;;;;14.93;75.05;101472.84;1835928;77;21003;-87
2021/07/23 03:17:28;;;;;;;10.60;8.75;;;;;;;15.00;74.91;101469.45;1836182;78;21560;-87
2021/07/23 03:19:55;;;;;;;12.73;8.98;;;;;;;15.08;74.89;101464.28;1839206;77;21027;-87
2021/07/23 03:22:21;;;;;;;12.05;8.73;;;;;;;15.17;74.80;101465.77;1838080;77;21735;-87
2021/07/23 03:24:48;;;;;;;11.48;9.10;;;;;;;15.26;74.71;101457.06;1806303;78;21121;-87
2021/07/23 03:27:15;;;;;;;13.48;8.88;;;;;;;15.35;74.68;101452.83;1804220;79;20998;-87
2021/07/23 03:29:41;;;;;;;11.48;8.45;;;;;;;15.48;74.53;101458.32;1804293;79;21067;-87
2021/07/23 03:32:08;;;;;;;10.13;7.45;;;;;;;15.61;74.44;101458.09;1786900;79;21038;-87
2021/07/23 03:34:35;;;;;;;12.93;8.30;;;;;;;15.74;74.28;101455.66;1786994;79;21663;-87
2021/07/23 03:37:01;;;;;;;11.25;8.25;;;;;;;15.89;74.15;101452.79;1806781;78;21022;-88
2021/07/23 03:39:29;;;;;;;13.62;8.85;;;;;;;16.07;73.99;101454.38;1803976;79;21033;-87
2021/07/23 03:41:56;;;;;;;10.43;8.35;;;;;;;16.28;73.78;101451.55;1804521;79;21527;-87
2021/07/23 03:44:22;;;;;;;12.60;8.65;;;;;;;16.61;73.88;101453.73;1804460;79;21104;-87
2021/07/23 03:46:49;;;;;;;11.40;7.28;;;;;;;17.24;74.16;101452.17;1795443;79;21806;-87
2021/07/23 03:49:15;;;;;;;10.43;7.35;;;;;;;18.26;74.17;101448.01;1774570;79;20964;-87
2021/07/23 03:51:42;;;;;;;9.30;7.30;;;;;;;19.50;73.43;101447.83;1781554;79;21550;-88
2021/07/23 03:54:09;;;;;;;7.87;6.65;;;;;;;20.59;71.63;101451.53;1807006;77;21171;-86
2021/07/23 03:56:35;;;;;;;9.53;6.80;;;;;;;21.64;70.11;101441.45;1850364;77;20999;-85
2021/07/23 03:59:02;;;;;;;7.87;6.20;;;;;;;22.59;68.54;101444.82;1849936;77;21776;-88
2021/07/23 04:01:29;;;;;;;7.20;6.42;;;;;;;23.46;66.36;101446.64;1849976;77;21808;-88
2021/07/23 04:03:55;;;;;;;6.17;5.58;;;;;;;24.17;65.16;101446.66;1849999;77;21525;-88
2021/07/23 04:06:22;;;;;;;11.75;6.50;;;;;;;24.86;63.20;101446.13;1849699;77;21054;-88
2021/07/23 04:08:49;;;;;;;16.23;7.03;;;;;;;25.48;61.88;101446.40;1850151;77;20940;-88
2021/07/23 04:11:17;;;;;;;10.30;6.20;;;;;;;26.15;60.77;101441.48;1849913;77;21775;-89
2021/07/23 04:13:45;;;;;;;6.40;5.45;;;;;;;26.76;59.29;101442.33;1829653;77;21056;-90
2021/07/23 04:16:11;;;;;;;7.25;5.55;;;;;;;27.41;58.28;101441.61;1825658;78;20988;-89
2021/07/23 04:18:38;;;;;;;10.28;6.35;;;;;;;28.02;56.52;101434.97;1825946;78;21172;-90
2021/07/23 04:21:05;;;;;;;9.25;5.67;;;;;;;28.54;55.48;101440.27;1825906;78;20996;-86
2021/07/23 04:23:32;;;;;;;15.32;5.58;;;;;;;29.19;54.30;101442.16;1826061;78;21199;-89
2021/07/23 04:25:58;;;;;;;7.20;4.97;;;;;;;29.79;53.19;101430.58;1826068;78;21011;-92
2021/07/23 04:28:25;;;;;;;8.45;5.42;;;;;;;30.43;52.16;101428.11;1825912;78;20996;-90
2021/07/23 04:30:52;;;;;;;9.68;5.65;;;;;;;31.04;50.86;101428.81;1826050;78;21047;-89
2021/07/23 04:33:18;;;;;;;6.35;4.90;;;;;;;31.50;49.43;101434.66;1825987;78;20984;-89
2021/07/23 04:35:45;;;;;;;8.95;4.62;;;;;;;31.88;48.28;101434.47;1825540;78;21755;-89
2021/07/23 04:38:12;;;;;;;10.68;5.37;;;;;;;32.04;47.12;101435.89;1825556;78;20995;-91
2021/07/23 04:40:39;;;;;;;6.10;4.30;;;;;;;32.28;46.64;101430.45;1825561;78;20948;-89
2021/07/23 04:43:06;;;;;;;7.70;4.30;;;;;;;32.65;45.71;101440.69;1825822;78;21019;-89
2021/07/23 04:45:32;;;;;;;5.35;4.03;;;;;;;33.16;45.23;101435.54;1825896;78;20991;-88
2021/07/23 04:47:59;;;;;;;6.25;4.67;;;;;;;33.67;44.23;101430.65;1825921;78;21732;-90
2021/07/23 04:50:26;;;;;;;5.87;4.35;;;;;;;34.15;43.29;101435.88;1826000;78;20984;-90
2021/07/23 04:52:56;;;;;;;9.80;4.62;;;;;;;34.44;42.15;101432.66;1812103;78;21466;-88
2021/07/23 04:55:24;;;;;;;8.05;4.03;;;;;;;34.67;41.35;101435.27;1800280;79;21058;-87
2021/07/23 04:57:51;;;;;;;6.60;4.30;;;;;;;35.03;40.60;101429.72;1791968;79;21084;-88
2021/07/23 05:00:18;;;;;;;6.70;3.72;;;;;;;35.21;39.69;101435.81;1800465;79;21831;-87
2021/07/23 05:02:45;;;;;;;8.50;3.95;;;;;;;35.42;39.18;101438.46;1791870;79;20968;-86
2021/07/23 05:05:13;;;;;;;6.50;3.77;;;;;;;35.78;38.84;101444.25;1778184;79;21026;-86
2021/07/23 05:07:40;;;;;;;10.40;4.80;;;;;;;36.35;37.92;101442.92;1795212;79;21050;-85
2021/07/23 05:10:08;;;;;;;6.22;3.65;;;;;;;36.81;37.21;101442.77;1800082;79;21033;-85
2021/07/23 05:12:34;;;;;;;5.62;3.98;;;;;;;37.01;36.27;101438.02;1793202;79;21598;-85
2021/07/23 05:15:01;;;;;;;8.20;4.08;;;;;;;37.23;35.86;101436.42;1800740;79;21185;-86
2021/07/23 05:17:28;;;;;;;6.10;4.22;;;;;;;37.39;35.29;101434.72;1800233;79;21019;-86
2021/07/23 05:19:55;;;;;;;11.53;3.50;;;;;;;37.72;34.87;101427.11;1800286;79;21152;-86
2021/07/23 05:22:21;;;;;;;7.67;3.55;;;;;;;38.00;34.37;101424.39;1793771;79;20979;-86
2021/07/23 05:24:48;;;;;;;7.30;3.47;;;;;;;38.20;33.47;101422.82;1801192;79;21785;-85
2021/07/23 05:27:15;;;;;;;5.00;3.60;;;;;;;38.10;32.70;101419.95;1793674;79;20972;-86
2021/07/23 05:29:42;;;;;;;8.13;3.62;;;;;;;37.92;32.47;101423.64;1802043;79;21571;-86
2021/07/23 05:32:08;;;;;;;6.00;3.70;;;;;;;37.99;32.31;101424.52;1798687;79;21015;-86
2021/07/23 05:34:35;;;;;;;4.60;3.37;;;;;;;38.06;31.60;101418.39;1792874;79;21003;-87
2021/07/23 05:37:02;;;;;;;5.15;3.22;;;;;;;38.05;31.59;101413.91;1792444;79;21748;-86
2021/07/23 05:39:29;;;;;;;9.93;3.20;;;;;;;38.36;31.10;101407.80;1799519;79;21520;-85
2021/07/23 05:41:55;;;;;;;8.90;3.67;;;;;;;38.38;30.97;101412.67;1800581;79;20984;-86
2021/07/23 05:44:22;;;;;;;9.93;3.55;;;;;;;38.38;30.69;101420.92;1798368;79;20976;-86
2021/07/23 05:46:49;;;;;;;5.20;3.15;;;;;;;37.55;30.07;101413.31;1799957;79;20943;-86
2021/07/23 05:49:15;;;;;;;6.70;3.80;;;;;;;35.65;29.98;101411.83;1789289;79;21738;-86
2021/07/23 05:51:45;;;;;;;6.80;3.02;;;;;;;33.66;30.74;101412.53;1800834;79;21116;-86
2021/07/23 05:54:11;;;;;;;5.87;3.22;;;;;;;31.91;31.83;101407.05;1805179;79;21004;-86
2021/07/23 05:56:37;;;;;;;17.17;4.17;;;;;;;30.33;32.99;101415.45;1796354;79;21240;-86
2021/07/23 05:59:04;;;;;;;12.82;4.60;;;;;;;29.21;34.26;101419.05;1784648;79;21097;-86
2021/07/23 06:01:31;;;;;;;9.18;4.42;;;;;;;28.12;35.20;101410.70;1795162;79;21734;-86
2021/07/23 06:03:59;;;;;;;11.88;3.90;;;;;;;27.22;36.45;101416.98;1789317;79;21093;-86
2021/07/23 06:06:26;;;;;;;10.38;3.35;;;;;;;26.55;37.41;101408.75;1799594;79;21014;-85
2021/07/23 06:08:57;;;;;;;9.33;3.27;;;;;;;25.99;38.22;101410.87;1793280;79;20967;-86
2021/07/23 06:11:23;;;;;;;9.43;3.58;;;;;;;25.55;39.15;101412.97;1799963;79;21050;-86
2021/07/23 06:13:50;;;;;;;6.22;3.30;;;;;;;25.13;39.92;101411.80;1793598;79;21705;-86
2021/07/23 06:16:17;;;;;;;6.47;3.27;;;;;;;24.77;40.44;101411.74;1784285;79;20998;-86
2021/07/23 06:18:44;;;;;;;9.95;3.22;;;;;;;24.47;41.24;101420.02;1768989;80;21058;-86
2021/07/23 06:21:10;;;;;;;6.80;3.20;;;;;;;24.29;41.81;101413.27;1784904;79;21010;-86
2021/07/23 06:23:37;;;;;;;8.30;3.45;;;;;;;24.14;42.40;101412.21;1795577;79;21512;-85
2021/07/23 06:26:04;;;;;;;5.60;3.05;;;;;;;24.07;42.85;101408.78;1800300;79;21704;-86
2021/07/23 06:28:31;;;;;;;12.98;3.02;;;;;;;23.95;42.86;101419.77;1798577;79;21039;-86
2021/07/23 06:31:04;;;;;;;12.03;5.17;;;;;;;23.77;43.46;101424.58;1802697;79;21046;-86
2021/07/23 06:33:31;;;;;;;7.97;3.50;;;;;;;23.68;43.71;101412.65;1806769;79;21050;-86
2021/07/23 06:36:00;;;;;;;9.50;4.00;;;;;;;23.59;44.10;101415.50;1803172;79;21039;-86
2021/07/23 06:38:26;;;;;;;9.13;3.85;;;;;;;23.49;44.31;101413.45;1779265;79;21826;-86
2021/07/23 06:40:53;;;;;;;7.03;3.37;;;;;;;23.40;44.61;101414.48;1797938;79;21019;-86
2021/07/23 06:43:20;;;;;;;13.38;3.60;;;;;;;23.37;44.90;101412.31;1800672;79;21003;-86
2021/07/23 06:45:54;;;;;;;6.90;3.37;;;;;;;23.36;45.16;101411.44;1798659;79;20967;-86
2021/07/23 06:48:21;;;;;;;9.23;3.20;;;;;;;23.37;45.31;101409.19;1797813;79;21011;-85
2021/07/23 06:50:50;;;;;;;13.93;4.40;;;;;;;23.34;45.21;101409.23;1797371;79;21224;-86
2021/07/23 06:53:18;;;;;;;8.60;3.85;;;;;;;23.22;45.28;101410.80;1794449;79;20964;-86
2021/07/23 06:55:45;;;;;;;11.55;3.50;;;;;;;23.14;45.34;101408.69;1794073;79;21004;-86
2021/07/23 06:58:12;;;;;;;8.13;3.22;;;;;;;23.04;45.55;101407.49;1797284;78;21539;-86
2021/07/23 07:00:39;;;;;;;10.68;3.25;;;;;;;22.98;45.88;101406.69;1795050;79;21492;-86
2021/07/23 07:03:09;;;;;;;6.17;4.00;;;;;;;23.00;46.01;101410.23;1800311;79;22773;-86
2021/07/23 07:05:35;;;;;;;7.58;3.00;;;;;;;23.05;45.94;101401.23;1800024;79;21011;-86
2021/07/23 07:08:02;;;;;;;10.20;2.95;;;;;;;23.09;45.85;101403.41;1800203;79;21233;-86
2021/07/23 07:10:29;;;;;;;8.30;3.17;;;;;;;23.09;45.68;101402.94;1794219;79;21026;-86
2021/07/23 07:12:58;;;;;;;7.08;3.52;;;;;;;23.07;45.79;101404.77;1803134;79;21081;-86
2021/07/23 07:15:25;;;;;;;7.22;4.37;;;;;;;23.11;45.85;101414.13;1799914;79;21801;-86
2021/07/23 07:18:00;;;;;;;11.18;8.53;;;;;;;23.02;45.70;101406.60;1803632;79;20932;-86
2021/07/23 07:20:27;;;;;;;7.70;5.03;;;;;;;22.96;45.84;101409.86;1796767;79;21505;-86
2021/07/23 07:22:54;;;;;;;10.32;3.50;;;;;;;22.90;45.78;101404.13;1796656;79;21509;-86
2021/07/23 07:25:22;;;;;;;12.13;3.72;;;;;;;22.83;46.08;101399.77;1800498;79;21038;-86
2021/07/23 07:27:49;;;;;;;9.60;3.47;;;;;;;22.79;45.94;101400.73;1800509;79;21783;-86
2021/07/23 07:30:15;;;;;;;4.65;3.45;;;;;;;22.72;45.86;101397.23;1798326;79;20987;-88
2021/07/23 07:32:43;;;;;;;5.80;3.77;;;;;;;22.60;46.05;101381.30;1797660;78;21553;-85
2021/07/23 07:35:10;;;;;;;10.20;3.00;;;;;;;22.67;45.99;101393.72;1800770;79;21170;-86
2021/07/23 07:37:37;;;;;;;7.87;3.80;;;;;;;22.69;46.22;101391.47;1800258;79;21082;-86
2021/07/23 07:40:05;;;;;;;9.48;3.90;;;;;;;22.84;46.15;101401.52;1797018;79;22559;-86
2021/07/23 07:42:35;;;;;;;5.87;3.60;;;;;;;22.92;46.20;101407.67;1799952;79;21059;-86
2021/07/23 07:45:05;;;;;;;7.95;3.75;;;;;;;22.91;46.02;101400.52;1794679;79;21054;-86
2021/07/23 07:47:32;;;;;;;8.98;3.55;;;;;;;22.86;45.98;101405.06;1799329;79;21438;-86
2021/07/23 07:49:59;;;;;;;9.23;3.37;;;;;;;22.73;45.70;101378.89;1800909;79;20991;-86
2021/07/23 07:52:25;;;;;;;15.10;3.70;;;;;;;22.84;45.44;101398.40;1798002;79;21864;-86
2021/07/23 07:54:52;;;;;;;11.75;4.40;;;;;;;22.86;45.41;101403.28;1791665;79;20999;-86
2021/07/23 07:57:19;;;;;;;12.65;9.10;;;;;;;22.90;45.58;101406.35;1803602;79;21050;-86
2021/07/23 07:59:46;;;;;;;5.17;3.55;;;;;;;22.96;45.33;101400.00;1800702;79;21048;-86
2021/07/23 08:02:14;;;;;;;7.33;3.87;;;;;;;22.96;45.30;101404.48;1798924;79;21014;-86
2021/07/23 08:04:41;;;;;;;7.28;3.98;;;;;;;22.93;45.24;101406.75;1800278;79;21780;-86
2021/07/23 08:07:10;;;;;;;6.55;4.80;;;;;;;22.90;45.19;101411.72;1800179;79;21054;-86
2021/07/23 08:10:01;;;;;;;17.35;4.15;;;;;;;22.93;45.43;101418.83;1800178;79;20999;-86
2021/07/23 08:12:26;;;;;;;5.62;3.75;;;;;;;22.87;45.08;101414.44;1799944;79;21046;-86
2021/07/23 08:14:53;;;;;;;6.05;3.50;;;;;;;22.84;45.09;101413.59;1804534;78;21038;-86
2021/07/23 08:17:20;;;;;;;5.10;3.40;;;;;;;22.78;45.09;101414.58;1789418;78;21779;-86
2021/07/23 08:19:46;;;;;;;11.00;4.10;;;;;;;22.77;45.25;101415.50;1779651;79;21057;-87
2021/07/23 08:22:13;;;;;;;6.55;3.65;;;;;;;22.78;45.44;101419.95;1800528;79;21019;-86
2021/07/23 08:24:40;;;;;;;11.28;3.65;;;;;;;22.80;45.54;101418.12;1800534;79;21074;-85
2021/07/23 08:27:06;;;;;;;10.15;3.37;;;;;;;22.82;45.89;101415.42;1799799;79;21469;-86
2021/07/23 08:29:33;;;;;;;4.22;3.25;;;;;;;22.89;45.64;101412.61;1800340;79;22823;-85
2021/07/23 08:32:10;;;;;;;7.28;3.52;;;;;;;22.95;45.61;101413.44;1800383;79;21027;-86
2021/07/23 08:34:37;;;;;;;5.70;3.75;;;;;;;23.03;45.69;101408.42;1800396;79;20995;-85
2021/07/23 08:37:04;;;;;;;9.05;3.42;;;;;;;23.08;45.50;101407.87;1800061;79;21015;-86
2021/07/23 08:39:31;;;;;;;9.60;3.83;;;;;;;23.12;45.62;101405.14;1800411;79;21492;-86
2021/07/23 08:41:57;;;;;;;5.08;3.20;;;;;;;23.08;45.41;101409.20;1801469;79;22583;-86
2021/07/23 08:44:27;;;;;;;10.63;3.70;;;;;;;23.04;45.58;101407.49;1800472;79;21105;-85
2021/07/23 08:46:54;;;;;;;7.45;3.87;;;;;;;23.06;45.68;101411.50;1800375;79;21043;-88
2021/07/23 08:49:21;;;;;;;9.98;3.80;;;;;;;23.07;45.17;101408.80;1788919;79;21149;-89
2021/07/23 08:51:51;;;;;;;5.25;3.33;;;;;;;23.04;45.43;101414.67;1779158;79;20983;-89
2021/07/23 08:54:19;;;;;;;7.37;3.98;;;;;;;23.03;45.42;101411.11;1790779;79;21972;-88
2021/07/23 08:56:49;;;;;;;7.97;3.62;;;;;;;23.03;45.25;101405.73;1800488;79;20991;-89
2021/07/23 08:59:15;;;;;;;6.75;3.55;;;;;;;22.96;45.15;101400.46;1800375;79;21058;-89
2021/07/23 09:02:00;;;;;;;5.78;3.50;;;;;;;23.04;45.01;101418.70;1800499;79;21074;-89
2021/07/23 09:04:32;;;;;;;7.45;3.70;;;;;;;23.03;44.88;101414.19;1805143;79;21018;-88
2021/07/23 09:07:19;;;;;;;9.03;4.07;;;;;;;23.00;45.12;101412.92;1801155;79;22638;-88
2021/07/23 09:09:54;;;;;;;6.40;3.67;;;;;;;23.08;45.05;101407.87;1756537;81;21107;-89
2021/07/23 09:12:21;;;;;;;8.15;3.47;;;;;;;23.08;45.05;101407.87;1763943;81;21034;-88
2021/07/23 09:14:48;;;;;;;6.20;3.42;;;;;;;23.12;44.93;101409.17;1761985;81;21232;-88
2021/07/23 09:17:15;;;;;;;4.20;3.50;;;;;;;23.12;44.63;101404.67;1761983;81;21137;-89
2021/07/23 09:19:41;;;;;;;5.22;3.30;;;;;;;22.93;44.51;101379.02;1762230;81;21194;-89
2021/07/23 09:22:08;;;;;;;5.80;3.60;;;;;;;22.93;44.51;101379.02;1762257;81;21050;-89
2021/07/23 09:24:51;;;;;;;6.92;3.65;;;;;;;23.07;44.79;101399.86;1763844;79;21012;-89
2021/07/23 09:27:34;;;;;;;3.95;3.33;;;;;;;23.12;44.43;101397.09;1762294;81;21047;-86
2021/07/23 09:30:02;;;;;;;7.23;3.37;;;;;;;23.23;44.77;101399.13;1762590;80;21457;-88
2021/07/23 09:32:29;;;;;;;9.20;4.28;;;;;;;23.45;44.81;101393.81;1766246;81;21718;-88
2021/07/23 09:35:13;;;;;;;6.65;4.30;;;;;;;23.84;44.54;101400.73;1757930;80;21182;-88
2021/07/23 09:37:55;;;;;;;6.25;3.25;;;;;;;23.84;44.54;101400.73;1760740;81;21055;-87
2021/07/23 09:40:22;;;;;;;6.58;4.10;;;;;;;23.96;43.57;101396.02;1757294;80;21066;-88
2021/07/23 09:42:56;;;;;;;12.07;5.42;;;;;;;23.95;42.87;101401.86;1761982;81;21070;-88
2021/07/23 09:45:31;;;;;;;8.80;5.25;;;;;;;23.75;42.70;101381.17;1759997;81;22584;-88
2021/07/23 09:48:13;;;;;;;9.08;5.10;;;;;;;23.77;42.53;101403.53;1757006;79;21582;-88
2021/07/23 09:50:51;;;;;;;5.70;4.25;;;;;;;23.68;42.78;101404.59;1762234;81;21027;-88
2021/07/23 09:53:12;;;;;;;4.17;3.45;;;;;;;23.62;42.95;101408.27;1758109;81;21615;-88
2021/07/23 09:55:40;;;;;;;7.05;3.27;;;;;;;23.59;42.94;101410.13;1761960;81;20996;-88
2021/07/23 09:58:07;;;;;;;11.25;3.40;;;;;;;23.66;42.74;101405.08;1761543;81;22585;-88
2021/07/23 10:00:37;;;;;;;10.45;4.00;;;;;;;23.82;42.31;101399.00;1757363;79;21106;-88
2021/07/23 10:03:13;;;;;;;5.40;2.83;;;;;;;24.02;41.94;101395.41;1762465;81;21094;-88
2021/07/23 10:05:53;;;;;;;7.25;3.25;;;;;;;24.28;41.87;101399.84;1760923;79;21055;-88
2021/07/23 10:08:33;;;;;;;5.22;2.87;;;;;;;24.55;41.67;101403.30;1760366;80;21012;-88
2021/07/23 10:11:01;;;;;;;5.30;2.90;;;;;;;24.83;41.60;101389.17;1761035;80;21786;-87
2021/07/23 10:13:29;;;;;;;5.65;2.85;;;;;;;25.10;41.10;101393.00;1761837;80;21091;-87
2021/07/23 10:15:57;;;;;;;5.22;2.77;;;;;;;25.34;40.95;101388.83;1760334;81;21513;-88
2021/07/23 10:18:24;;;;;;;6.92;2.90;;;;;;;25.58;40.75;101387.30;1752441;79;21099;-87
2021/07/23 10:20:51;;;;;;;14.25;6.65;;;;;;;25.77;40.46;101389.01;1760247;81;21023;-87
2021/07/23 10:23:22;;;;;;;13.58;5.33;;;;;;;25.85;40.07;101383.39;1761968;81;22643;-87
2021/07/23 10:25:53;;;;;;;4.17;3.00;;;;;;;25.91;39.95;101379.16;1761902;81;21122;-87
2021/07/23 10:28:46;;;;;;;5.62;2.77;;;;;;;25.93;39.58;101382.73;1762004;81;21039;-87
2021/07/23 10:31:28;;;;;;;6.25;4.05;;;;;;;25.87;39.40;101379.31;1761739;81;21133;-86
2021/07/23 10:33:58;;;;;;;5.45;3.05;;;;;;;25.86;39.07;101371.66;1792395;79;21434;-85
2021/07/23 10:36:33;;;;;;;7.12;3.08;;;;;;;25.91;39.45;101366.16;1800401;79;22414;-86
2021/07/23 10:39:19;;;;;;;5.58;3.20;;;;;;;25.96;39.39;101370.98;1791084;79;20936;-89
2021/07/23 10:41:54;;;;;;;5.28;2.75;;;;;;;25.93;38.50;101368.38;1805351;79;21053;-87
2021/07/23 10:44:33;;;;;;;5.35;2.45;;;;;;;25.60;38.20;101371.95;1800243;79;20987;-87
2021/07/23 10:47:00;;;;;;;8.50;2.35;;;;;;;25.48;38.27;101360.62;1784895;79;21030;-87
2021/07/23 10:49:35;;;;;;;8.80;2.77;;;;;;;25.44;38.43;101363.86;1790339;78;22662;-88
2021/07/23 10:52:05;;;;;;;3.62;2.50;;;;;;;25.41;38.26;101362.59;1780741;79;21007;-87
2021/07/23 10:54:34;;;;;;;3.98;3.30;;;;;;;25.45;38.39;101353.95;1796532;79;21042;-88
2021/07/23 10:57:06;;;;;;;5.12;2.60;;;;;;;25.54;38.44;101356.40;1783779;79;21038;-87
2021/07/23 10:59:44;;;;;;;7.43;4.30;;;;;;;25.54;38.13;101350.53;1799004;79;21007;-87
2021/07/23 11:02:18;;;;;;;5.55;2.30;;;;;;;25.58;38.25;101351.34;1800211;79;22608;-89
2021/07/23 11:04:46;;;;;;;8.13;2.67;;;;;;;25.61;38.31;101348.56;1800323;78;21066;-86
2021/07/23 11:07:13;;;;;;;6.37;2.50;;;;;;;25.63;38.54;101345.36;1805506;79;20999;-87
2021/07/23 11:15:15;;;;;;;13.05;2.83;;;;;;;25.77;37.83;101338.22;1803561;79;22632;-86
2021/07/23 11:17:56;;;;;;;5.08;2.52;;;;;;;25.77;37.88;101336.86;1806753;79;20987;-87
2021/07/23 11:20:37;;;;;;;6.70;2.83;;;;;;;25.75;37.96;101334.69;1801953;79;21074;-86
2021/07/23 11:23:03;;;;;;;8.95;2.90;;;;;;;25.68;37.82;101336.69;1801050;79;21477;-88
2021/07/23 11:25:30;;;;;;;6.78;3.37;;;;;;;25.64;37.88;101339.50;1794968;79;21496;-87
2021/07/23 11:28:00;;;;;;;8.65;4.85;;;;;;;25.48;37.67;101333.20;1803542;79;21844;-87
2021/07/23 11:30:29;;;;;;;8.30;3.20;;;;;;;25.42;38.02;101342.81;1803417;79;21031;-87
2021/07/23 11:32:57;;;;;;;6.00;3.17;;;;;;;25.43;38.01;101336.47;1784253;79;21073;-87